createdAt,value
2018-04-13T00:00:33.080Z,19.79
2018-04-13T00:01:08.395Z,19.50
2018-04-13T00:01:43.761Z,19.50
2018-04-13T00:02:19.009Z,18.54
2018-04-13T00:02:54.423Z,18.16
2018-04-13T00:03:29.702Z,17.49
2018-04-13T00:04:05.034Z,17.88
2018-04-13T00:04:42.799Z,18.26
2018-04-13T00:05:18.028Z,18.07
2018-04-13T00:05:53.427Z,17.30
2018-04-13T00:06:28.645Z,17.49
2018-04-13T00:07:03.997Z,17.97
2018-04-13T00:07:39.183Z,16.73
2018-04-13T00:08:14.591Z,15.77
2018-04-13T00:08:52.005Z,15.30
2018-04-13T00:09:27.321Z,15.48
2018-04-13T00:10:02.400Z,15.58
2018-04-13T00:10:37.721Z,15.67
2018-04-13T00:11:13.122Z,15.77
2018-04-13T00:11:48.555Z,15.39
2018-04-13T00:12:24.003Z,16.06
2018-04-13T00:12:59.469Z,15.67
2018-04-13T00:13:34.687Z,16.53
2018-04-13T00:14:10.200Z,16.63
2018-04-13T00:14:45.605Z,16.53
2018-04-13T00:15:20.818Z,17.21
2018-04-13T00:15:56.418Z,16.82
2018-04-13T00:16:31.850Z,17.02
2018-04-13T00:17:07.279Z,16.92
2018-04-13T00:17:42.480Z,17.02
2018-04-13T00:18:17.993Z,16.63
2018-04-13T00:18:53.192Z,16.44
2018-04-13T00:19:28.706Z,16.82
2018-04-13T00:20:03.961Z,15.39
2018-04-13T00:20:40.963Z,15.10
2018-04-13T00:21:16.397Z,14.72
2018-04-13T00:21:51.829Z,14.34
2018-04-13T00:22:27.384Z,13.09
2018-04-13T00:23:02.794Z,12.43
2018-04-13T00:23:37.927Z,11.76
2018-04-13T00:24:13.450Z,11.66
2018-04-13T00:24:50.044Z,11.94
2018-04-13T00:25:25.183Z,12.33
2018-04-13T00:26:00.371Z,12.14
2018-04-13T00:26:35.573Z,12.71
2018-04-13T00:27:10.905Z,12.52
2018-04-13T00:27:46.218Z,12.23
2018-04-13T00:28:21.434Z,11.76
2018-04-13T00:28:56.626Z,11.66
2018-04-13T00:29:32.160Z,11.38
2018-04-13T00:30:07.774Z,11.66
2018-04-13T00:30:44.373Z,12.04
2018-04-13T00:31:19.612Z,11.85
2018-04-13T00:31:55.039Z,11.66
2018-04-13T00:32:30.599Z,12.04
2018-04-13T00:33:05.973Z,11.85
2018-04-13T00:33:41.344Z,12.33
2018-04-13T00:34:17.055Z,12.14
2018-04-13T00:34:52.779Z,12.24
2018-04-13T00:35:28.232Z,11.76
2018-04-13T00:36:03.418Z,11.18
2018-04-13T00:36:38.859Z,10.22
2018-04-13T00:37:14.206Z,9.27
2018-04-13T00:37:50.939Z,8.50
2018-04-13T00:38:26.292Z,8.22
2018-04-13T00:39:01.576Z,8.22
2018-04-13T00:39:36.996Z,7.74
2018-04-13T00:40:12.229Z,7.83
2018-04-13T00:40:47.909Z,7.26
2018-04-13T00:41:23.575Z,7.93
2018-04-13T00:41:58.995Z,7.17
2018-04-13T00:42:34.660Z,7.35
2018-04-13T00:43:09.782Z,7.17
2018-04-13T00:43:45.361Z,7.54
2018-04-13T00:44:20.577Z,7.74
2018-04-13T00:44:55.864Z,7.83
2018-04-13T00:45:31.092Z,7.93
2018-04-13T00:46:06.638Z,8.40
2018-04-13T00:46:41.930Z,9.27
2018-04-13T00:47:17.416Z,9.36
2018-04-13T00:47:52.836Z,9.74
2018-04-13T00:48:28.083Z,10.22
2018-04-13T00:49:03.307Z,9.27
2018-04-13T00:49:38.823Z,8.22
2018-04-13T00:50:14.464Z,8.50
2018-04-13T00:50:49.861Z,8.79
2018-04-13T00:51:25.285Z,8.98
2018-04-13T00:52:00.726Z,9.17
2018-04-13T00:52:36.157Z,9.74
2018-04-13T00:53:11.229Z,10.13
2018-04-13T00:53:46.440Z,10.41
2018-04-13T00:54:21.936Z,10.31
2018-04-13T00:54:57.570Z,10.80
2018-04-13T00:55:32.819Z,10.80
2018-04-13T00:56:08.106Z,11.27
2018-04-13T00:56:43.644Z,11.75
2018-04-13T00:57:19.145Z,11.94
2018-04-13T00:57:54.588Z,12.32
2018-04-13T00:58:30.100Z,12.51
2018-04-13T00:59:05.710Z,12.90
2018-04-13T00:59:40.936Z,13.37
2018-04-13T01:00:16.138Z,13.37
2018-04-13T01:00:51.954Z,13.47
2018-04-13T01:01:27.376Z,13.47
2018-04-13T01:02:02.785Z,13.85
2018-04-13T01:02:38.647Z,13.76
2018-04-13T01:03:14.147Z,13.95
2018-04-13T01:03:49.601Z,14.23
2018-04-13T01:04:25.022Z,14.23
2018-04-13T01:05:00.202Z,14.62
2018-04-13T01:05:35.541Z,14.72
2018-04-13T01:06:10.649Z,14.72
2018-04-13T01:06:46.106Z,13.18
2018-04-13T01:07:21.625Z,13.57
2018-04-13T01:07:56.942Z,13.28
2018-04-13T01:08:32.148Z,13.95
2018-04-13T01:09:07.427Z,13.95
2018-04-13T01:09:42.659Z,14.72
2018-04-13T01:10:18.144Z,14.33
2018-04-13T01:10:53.462Z,13.09
2018-04-13T01:11:28.898Z,13.09
2018-04-13T01:12:04.528Z,13.47
2018-04-13T01:12:41.249Z,13.95
2018-04-13T01:13:16.621Z,14.14
2018-04-13T01:13:52.055Z,14.23
2018-04-13T01:14:27.665Z,14.72
2018-04-13T01:15:03.071Z,14.72
2018-04-13T01:15:38.485Z,15.38
2018-04-13T01:16:13.818Z,15.57
2018-04-13T01:16:49.380Z,15.29
2018-04-13T01:17:24.821Z,15.48
2018-04-13T01:18:00.097Z,15.77
2018-04-13T01:18:35.635Z,15.86
2018-04-13T01:19:10.752Z,16.43
2018-04-13T01:19:46.374Z,16.43
2018-04-13T01:20:21.765Z,16.24
2018-04-13T01:20:57.282Z,16.24
2018-04-13T01:21:32.492Z,16.72
2018-04-13T01:22:08.001Z,16.63
2018-04-13T01:22:43.436Z,16.53
2018-04-13T01:23:18.933Z,17.00
2018-04-13T01:23:54.344Z,17.00
2018-04-13T01:24:30.243Z,17.00
2018-04-13T01:25:05.968Z,17.10
2018-04-13T01:25:41.195Z,17.68
2018-04-13T01:26:16.605Z,17.39
2018-04-13T01:26:51.935Z,17.10
2018-04-13T01:27:27.305Z,17.77
2018-04-13T01:28:02.386Z,17.49
2018-04-13T01:28:37.720Z,17.77
2018-04-13T01:29:13.206Z,17.68
2018-04-13T01:29:48.620Z,17.58
2018-04-13T01:30:24.053Z,18.15
2018-04-13T01:30:59.757Z,18.06
2018-04-13T01:31:35.097Z,18.44
2018-04-13T01:32:10.712Z,18.63
2018-04-13T01:32:46.220Z,18.44
2018-04-13T01:33:21.544Z,18.63
2018-04-13T01:33:57.188Z,18.82
2018-04-13T01:34:32.696Z,19.01
2018-04-13T01:35:08.110Z,18.63
2018-04-13T01:35:43.251Z,18.25
2018-04-13T01:36:18.562Z,18.54
2018-04-13T01:36:53.874Z,18.44
2018-04-13T01:37:29.137Z,18.44
2018-04-13T01:38:04.444Z,18.44
2018-04-13T01:38:39.902Z,18.44
2018-04-13T01:39:15.502Z,18.35
2018-04-13T01:39:50.611Z,18.63
2018-04-13T01:40:25.941Z,18.54
2018-04-13T01:41:01.131Z,18.63
2018-04-13T01:41:36.356Z,19.20
2018-04-13T01:42:11.665Z,18.82
2018-04-13T01:42:46.918Z,18.91
2018-04-13T01:43:22.321Z,18.91
2018-04-13T01:43:57.575Z,19.01
2018-04-13T01:44:32.989Z,19.01
2018-04-13T01:45:08.118Z,19.01
2018-04-13T01:45:43.435Z,18.91
2018-04-13T01:46:18.452Z,19.20
2018-04-13T01:46:53.920Z,19.10
2018-04-13T01:47:29.198Z,16.43
2018-04-13T01:48:04.547Z,16.81
2018-04-13T01:48:40.260Z,17.47
2018-04-13T01:49:15.544Z,17.38
2018-04-13T01:49:51.173Z,16.52
2018-04-13T01:50:26.367Z,17.10
2018-04-13T01:51:01.884Z,17.00
2018-04-13T01:51:36.992Z,17.76
2018-04-13T01:52:12.842Z,17.10
2018-04-13T01:52:48.154Z,17.57
2018-04-13T01:53:23.457Z,17.66
2018-04-13T01:53:58.876Z,17.47
2018-04-13T01:54:34.088Z,17.76
2018-04-13T01:55:09.988Z,17.76
2018-04-13T01:55:45.409Z,18.15
2018-04-13T01:56:21.048Z,18.52
2018-04-13T01:56:56.370Z,18.52
2018-04-13T01:57:31.683Z,18.62
2018-04-13T01:58:07.624Z,18.62
2018-04-13T01:58:43.153Z,18.91
2018-04-13T01:59:18.638Z,18.81
2018-04-13T01:59:54.058Z,19.38
2018-04-13T02:00:29.650Z,19.29
2018-04-13T02:01:04.983Z,19.38
2018-04-13T02:01:41.092Z,19.01
2018-04-13T02:02:16.715Z,18.62
2018-04-13T02:02:52.130Z,18.81
2018-04-13T02:03:27.311Z,17.47
2018-04-13T02:04:02.747Z,17.57
2018-04-13T02:04:38.001Z,16.52
2018-04-13T02:05:13.133Z,15.37
2018-04-13T02:05:48.251Z,14.51
2018-04-13T02:06:23.693Z,14.80
2018-04-13T02:06:58.945Z,15.47
2018-04-13T02:07:35.663Z,14.51
2018-04-13T02:08:10.950Z,14.61
2018-04-13T02:08:46.348Z,15.56
2018-04-13T02:09:21.736Z,15.66
2018-04-13T02:09:57.253Z,15.56
2018-04-13T02:10:32.755Z,15.75
2018-04-13T02:11:08.427Z,15.75
2018-04-13T02:11:43.742Z,15.85
2018-04-13T02:12:19.051Z,15.85
2018-04-13T02:12:54.366Z,16.42
2018-04-13T02:13:29.655Z,16.42
2018-04-13T02:14:04.895Z,16.61
2018-04-13T02:14:40.321Z,16.52
2018-04-13T02:15:15.664Z,17.10
2018-04-13T02:15:51.072Z,16.90
2018-04-13T02:16:26.558Z,16.33
2018-04-13T02:17:01.936Z,15.75
2018-04-13T02:17:37.381Z,16.42
2018-04-13T02:18:13.167Z,17.10
2018-04-13T02:18:48.487Z,17.00
2018-04-13T02:19:23.757Z,16.81
2018-04-13T02:19:59.287Z,16.81
2018-04-13T02:20:34.834Z,17.10
2018-04-13T02:21:10.346Z,17.00
2018-04-13T02:21:45.473Z,16.14
2018-04-13T02:22:20.801Z,16.42
2018-04-13T02:22:55.920Z,16.81
2018-04-13T02:23:31.124Z,16.81
2018-04-13T02:24:06.358Z,16.81
2018-04-13T02:24:41.983Z,17.57
2018-04-13T02:25:17.179Z,17.37
2018-04-13T02:25:52.932Z,17.76
2018-04-13T02:26:28.326Z,17.37
2018-04-13T02:27:03.769Z,18.23
2018-04-13T02:27:39.107Z,18.33
2018-04-13T02:28:14.289Z,12.41
2018-04-13T02:28:49.531Z,11.74
2018-04-13T02:29:24.839Z,8.11
2018-04-13T02:30:00.093Z,8.40
2018-04-13T02:30:35.527Z,8.59
2018-04-13T02:31:10.635Z,9.45
2018-04-13T02:31:46.168Z,9.64
2018-04-13T02:32:21.884Z,7.06
2018-04-13T02:32:57.132Z,7.73
2018-04-13T02:33:32.533Z,9.26
2018-04-13T02:34:07.972Z,9.45
2018-04-13T02:34:43.466Z,10.31
2018-04-13T02:35:18.797Z,11.07
2018-04-13T02:35:54.244Z,11.55
2018-04-13T02:36:29.533Z,10.97
2018-04-13T02:37:04.799Z,11.65
2018-04-13T02:37:40.527Z,11.74
2018-04-13T02:38:15.833Z,11.83
2018-04-13T02:38:51.334Z,10.97
2018-04-13T02:39:26.953Z,12.02
2018-04-13T02:40:02.917Z,11.74
2018-04-13T02:40:39.049Z,11.55
2018-04-13T02:41:14.259Z,10.69
2018-04-13T02:41:49.670Z,10.60
2018-04-13T02:42:25.126Z,10.97
2018-04-13T02:43:00.450Z,11.65
2018-04-13T02:43:35.652Z,11.65
2018-04-13T02:44:11.192Z,11.74
2018-04-13T02:44:46.533Z,11.93
2018-04-13T02:45:21.831Z,12.12
2018-04-13T02:45:57.136Z,12.41
2018-04-13T02:46:32.533Z,12.31
2018-04-13T02:47:08.080Z,12.22
2018-04-13T02:47:43.368Z,12.50
2018-04-13T02:48:18.675Z,12.12
2018-04-13T02:48:54.027Z,12.02
2018-04-13T02:49:29.317Z,11.65
2018-04-13T02:50:04.847Z,12.22
2018-04-13T02:50:42.741Z,11.83
2018-04-13T02:51:18.263Z,11.65
2018-04-13T02:51:53.894Z,11.93
2018-04-13T02:52:29.184Z,10.31
2018-04-13T02:53:04.649Z,8.40
2018-04-13T02:53:40.203Z,6.87
2018-04-13T02:54:15.321Z,7.06
2018-04-13T02:54:50.647Z,6.49
2018-04-13T02:55:25.919Z,5.34
2018-04-13T02:56:01.256Z,5.34
2018-04-13T02:56:36.545Z,5.34
2018-04-13T02:57:11.822Z,5.15
2018-04-13T02:57:47.068Z,5.63
2018-04-13T02:58:22.584Z,5.15
2018-04-13T02:58:57.790Z,4.86
2018-04-13T02:59:33.100Z,4.96
2018-04-13T03:00:08.531Z,4.86
2018-04-13T03:00:47.763Z,4.77
2018-04-13T03:01:23.036Z,5.05
2018-04-13T03:01:58.879Z,4.68
2018-04-13T03:02:34.176Z,4.77
2018-04-13T03:03:09.914Z,4.49
2018-04-13T03:03:45.415Z,4.58
2018-04-13T03:04:20.628Z,3.24
2018-04-13T03:04:56.270Z,2.19
2018-04-13T03:05:31.459Z,2.48
2018-04-13T03:06:06.685Z,2.86
2018-04-13T03:06:41.792Z,3.05
2018-04-13T03:07:17.261Z,3.24
2018-04-13T03:07:53.089Z,3.44
2018-04-13T03:08:28.485Z,4.20
2018-04-13T03:09:03.813Z,4.68
2018-04-13T03:09:39.227Z,5.54
2018-04-13T03:10:14.460Z,5.54
2018-04-13T03:10:49.993Z,5.63
2018-04-13T03:11:25.485Z,6.11
2018-04-13T03:12:01.164Z,6.87
2018-04-13T03:12:37.259Z,7.06
2018-04-13T03:13:12.453Z,6.68
2018-04-13T03:13:47.826Z,7.06
2018-04-13T03:14:23.356Z,7.34
2018-04-13T03:14:58.670Z,7.82
2018-04-13T03:15:34.509Z,7.63
2018-04-13T03:16:09.715Z,8.39
2018-04-13T03:16:44.926Z,8.68
2018-04-13T03:17:20.521Z,8.97
2018-04-13T03:17:55.645Z,9.16
2018-04-13T03:18:31.023Z,6.49
2018-04-13T03:19:06.584Z,5.63
2018-04-13T03:19:41.911Z,5.05
2018-04-13T03:20:17.035Z,2.86
2018-04-13T03:20:52.455Z,2.76
2018-04-13T03:21:27.864Z,3.91
2018-04-13T03:22:03.734Z,4.77
2018-04-13T03:22:39.016Z,5.15
2018-04-13T03:23:14.457Z,5.72
2018-04-13T03:23:49.667Z,6.58
2018-04-13T03:24:25.182Z,6.87
2018-04-13T03:25:00.712Z,7.25
2018-04-13T03:25:35.904Z,7.82
2018-04-13T03:26:11.534Z,7.92
2018-04-13T03:26:47.165Z,8.01
2018-04-13T03:27:22.988Z,8.39
2018-04-13T03:27:58.609Z,8.30
2018-04-13T03:28:34.109Z,8.78
2018-04-13T03:29:09.412Z,9.16
2018-04-13T03:29:44.527Z,9.16
2018-04-13T03:30:20.127Z,9.44
2018-04-13T03:30:55.550Z,7.82
2018-04-13T03:31:31.056Z,7.63
2018-04-13T03:32:06.821Z,6.01
2018-04-13T03:32:42.107Z,5.53
2018-04-13T03:33:17.446Z,5.82
2018-04-13T03:33:52.808Z,6.49
2018-04-13T03:34:28.380Z,6.29
2018-04-13T03:35:03.475Z,6.39
2018-04-13T03:35:38.701Z,6.20
2018-04-13T03:36:14.160Z,4.29
2018-04-13T03:36:49.477Z,2.09
2018-04-13T03:37:24.830Z,1.90
2018-04-13T03:38:00.462Z,2.58
2018-04-13T03:38:35.758Z,3.43
2018-04-13T03:39:11.378Z,4.10
2018-04-13T03:39:46.518Z,3.53
2018-04-13T03:40:21.957Z,0.95
2018-04-13T03:40:57.278Z,1.24
2018-04-13T03:41:32.580Z,0.09
2018-04-13T03:42:08.024Z,0.00
2018-04-13T03:42:43.515Z,0.00
2018-04-13T03:43:18.625Z,0.19
2018-04-13T03:43:54.253Z,0.19
2018-04-13T03:44:29.787Z,0.19
2018-04-13T03:45:05.538Z,1.53
2018-04-13T03:45:40.814Z,1.72
2018-04-13T03:46:15.855Z,2.00
2018-04-13T03:46:51.246Z,2.58
2018-04-13T03:47:26.513Z,2.86
2018-04-13T03:48:01.782Z,2.86
2018-04-13T03:48:37.994Z,3.24
2018-04-13T03:49:13.519Z,3.63
2018-04-13T03:49:48.920Z,4.00
2018-04-13T03:50:24.376Z,3.81
2018-04-13T03:50:59.592Z,3.91
2018-04-13T03:51:34.766Z,3.91
2018-04-13T03:52:10.367Z,3.91
2018-04-13T03:52:45.559Z,4.10
2018-04-13T03:53:21.292Z,4.19
2018-04-13T03:53:56.961Z,4.48
2018-04-13T03:54:32.172Z,4.77
2018-04-13T03:55:07.572Z,6.01
2018-04-13T03:55:43.058Z,5.63
2018-04-13T03:56:18.375Z,5.72
2018-04-13T03:56:53.607Z,5.91
2018-04-13T03:57:29.055Z,5.82
2018-04-13T03:58:04.397Z,5.91
2018-04-13T03:58:40.086Z,5.53
2018-04-13T03:59:15.497Z,5.53
2018-04-13T03:59:50.673Z,6.20
2018-04-13T04:00:26.123Z,6.20
2018-04-13T04:01:02.260Z,6.58
2018-04-13T04:01:37.852Z,6.29
2018-04-13T04:02:13.446Z,6.01
2018-04-13T04:02:48.648Z,6.20
2018-04-13T04:03:24.262Z,6.39
2018-04-13T04:03:59.683Z,6.29
2018-04-13T04:04:35.061Z,5.34
2018-04-13T04:05:10.599Z,5.24
2018-04-13T04:05:45.725Z,5.44
2018-04-13T04:06:21.570Z,5.34
2018-04-13T04:06:57.204Z,5.63
2018-04-13T04:07:32.535Z,6.49
2018-04-13T04:08:08.290Z,6.77
2018-04-13T04:08:43.692Z,6.58
2018-04-13T04:09:19.046Z,7.63
2018-04-13T04:09:55.766Z,7.34
2018-04-13T04:10:31.068Z,6.58
2018-04-13T04:11:06.283Z,7.44
2018-04-13T04:11:41.598Z,6.87
2018-04-13T04:12:16.942Z,7.06
2018-04-13T04:12:52.238Z,3.14
2018-04-13T04:13:27.559Z,3.91
2018-04-13T04:14:03.178Z,4.39
2018-04-13T04:14:39.143Z,4.77
2018-04-13T04:15:14.664Z,4.86
2018-04-13T04:15:49.882Z,4.00
2018-04-13T04:16:25.637Z,1.24
2018-04-13T04:17:01.403Z,2.19
2018-04-13T04:17:36.924Z,2.48
2018-04-13T04:18:12.138Z,2.29
2018-04-13T04:18:47.569Z,2.86
2018-04-13T04:19:22.876Z,2.29
2018-04-13T04:19:57.877Z,0.85
2018-04-13T04:20:33.615Z,1.62
2018-04-13T04:21:08.921Z,0.67
2018-04-13T04:21:44.324Z,0.48
2018-04-13T04:22:19.622Z,0.76
2018-04-13T04:22:55.021Z,1.33
2018-04-13T04:23:30.363Z,0.28
2018-04-13T04:24:05.928Z,0.57
2018-04-13T04:24:41.698Z,0.67
2018-04-13T04:25:16.849Z,1.24
2018-04-13T04:25:52.457Z,1.81
2018-04-13T04:26:27.814Z,2.48
2018-04-13T04:27:03.529Z,2.48
2018-04-13T04:27:39.041Z,2.19
2018-04-13T04:28:14.662Z,1.90
2018-04-13T04:28:49.779Z,1.33
2018-04-13T04:29:25.127Z,1.53
2018-04-13T04:30:00.503Z,1.81
2018-04-13T04:30:35.933Z,2.38
2018-04-13T04:31:10.905Z,2.48
2018-04-13T04:31:46.213Z,2.58
2018-04-13T04:32:21.575Z,3.05
2018-04-13T04:32:57.188Z,3.53
2018-04-13T04:33:32.702Z,3.63
2018-04-13T04:34:07.929Z,3.63
2018-04-13T04:34:43.613Z,3.81
2018-04-13T04:35:18.990Z,4.10
2018-04-13T04:35:54.226Z,4.29
2018-04-13T04:36:29.942Z,4.86
2018-04-13T04:37:05.375Z,5.15
2018-04-13T04:37:41.004Z,5.05
2018-04-13T04:38:16.447Z,4.39
2018-04-13T04:38:51.910Z,4.39
2018-04-13T04:39:27.853Z,4.86
2018-04-13T04:40:03.523Z,4.48
2018-04-13T04:40:39.550Z,4.00
2018-04-13T04:41:14.754Z,3.34
2018-04-13T04:41:49.856Z,3.24
2018-04-13T04:42:25.229Z,2.95
2018-04-13T04:43:00.539Z,3.14
2018-04-13T04:43:35.875Z,3.34
2018-04-13T04:44:11.484Z,3.05
2018-04-13T04:44:46.812Z,2.48
2018-04-13T04:45:21.930Z,2.58
2018-04-13T04:45:57.574Z,2.76
2018-04-13T04:46:32.860Z,2.58
2018-04-13T04:47:07.899Z,2.48
2018-04-13T04:47:43.369Z,2.76
2018-04-13T04:48:18.588Z,2.58
2018-04-13T04:48:54.106Z,3.14
2018-04-13T04:49:29.449Z,3.24
2018-04-13T04:50:05.200Z,3.43
2018-04-13T04:50:40.615Z,3.43
2018-04-13T04:51:16.052Z,3.91
2018-04-13T04:51:51.605Z,3.72
2018-04-13T04:52:26.952Z,2.86
2018-04-13T04:53:02.084Z,3.53
2018-04-13T04:53:37.694Z,3.24
2018-04-13T04:54:12.795Z,2.48
2018-04-13T04:54:48.529Z,1.90
2018-04-13T04:55:23.754Z,1.72
2018-04-13T04:55:59.159Z,1.43
2018-04-13T04:56:34.982Z,2.19
2018-04-13T04:57:10.423Z,2.48
2018-04-13T04:57:46.286Z,2.48
2018-04-13T04:58:21.704Z,2.58
2018-04-13T04:58:57.211Z,2.48
2018-04-13T04:59:32.651Z,2.39
2018-04-13T05:00:07.832Z,2.76
2018-04-13T05:00:43.779Z,2.76
2018-04-13T05:01:19.201Z,2.76
2018-04-13T05:01:54.736Z,3.34
2018-04-13T05:02:29.992Z,3.34
2018-04-13T05:03:05.505Z,2.76
2018-04-13T05:03:40.753Z,2.86
2018-04-13T05:04:16.396Z,3.44
2018-04-13T05:04:51.965Z,3.44
2018-04-13T05:05:27.396Z,3.91
2018-04-13T05:06:02.991Z,3.81
2018-04-13T05:06:38.631Z,4.49
2018-04-13T05:07:14.500Z,4.39
2018-04-13T05:07:49.924Z,4.49
2018-04-13T05:08:25.255Z,4.20
2018-04-13T05:09:00.570Z,4.39
2018-04-13T05:09:36.038Z,4.29
2018-04-13T05:10:11.202Z,4.86
2018-04-13T05:10:46.734Z,5.05
2018-04-13T05:11:22.122Z,5.15
2018-04-13T05:11:57.445Z,5.15
2018-04-13T05:12:32.793Z,4.86
2018-04-13T05:13:08.221Z,5.05
2018-04-13T05:13:43.328Z,4.58
2018-04-13T05:14:18.999Z,4.49
2018-04-13T05:14:54.489Z,4.58
2018-04-13T05:15:30.119Z,4.49
2018-04-13T05:16:05.915Z,5.15
2018-04-13T05:16:41.445Z,5.34
2018-04-13T05:17:16.876Z,5.63
2018-04-13T05:17:52.475Z,6.11
2018-04-13T05:18:27.621Z,6.49
2018-04-13T05:19:02.931Z,6.11
2018-04-13T05:19:38.406Z,6.30
2018-04-13T05:20:13.828Z,6.20
2018-04-13T05:20:51.953Z,6.39
2018-04-13T05:21:27.220Z,6.39
2018-04-13T05:22:02.589Z,6.01
2018-04-13T05:22:37.809Z,6.96
2018-04-13T05:23:13.079Z,7.06
2018-04-13T05:23:48.445Z,7.44
2018-04-13T05:24:23.981Z,7.64
2018-04-13T05:24:59.323Z,7.92
2018-04-13T05:25:35.104Z,8.01
2018-04-13T05:26:10.664Z,8.01
2018-04-13T05:26:46.512Z,6.96
2018-04-13T05:27:21.814Z,7.82
2018-04-13T05:27:57.313Z,7.35
2018-04-13T05:28:32.627Z,7.92
2018-04-13T05:29:08.123Z,7.82
2018-04-13T05:29:43.459Z,8.50
2018-04-13T05:30:19.205Z,8.11
2018-04-13T05:30:55.638Z,8.30
2018-04-13T05:31:31.478Z,8.01
2018-04-13T05:32:06.773Z,6.96
2018-04-13T05:32:42.542Z,7.82
2018-04-13T05:33:17.937Z,8.30
2018-04-13T05:33:53.051Z,8.11
2018-04-13T05:34:28.807Z,7.82
2018-04-13T05:35:03.789Z,7.25
2018-04-13T05:35:39.521Z,7.25
2018-04-13T05:36:14.869Z,6.87
2018-04-13T05:36:50.259Z,5.91
2018-04-13T05:37:25.702Z,5.15
2018-04-13T05:38:00.881Z,4.58
2018-04-13T05:38:36.342Z,4.58
2018-04-13T05:39:11.662Z,4.77
2018-04-13T05:39:46.888Z,4.49
2018-04-13T05:40:22.426Z,4.49
2018-04-13T05:40:57.831Z,4.58
2018-04-13T05:41:33.258Z,4.86
2018-04-13T05:42:09.086Z,4.49
2018-04-13T05:42:44.735Z,4.58
2018-04-13T05:43:19.949Z,4.20
2018-04-13T05:43:55.475Z,4.20
2018-04-13T05:44:30.921Z,4.58
2018-04-13T05:45:06.125Z,4.77
2018-04-13T05:45:42.186Z,4.96
2018-04-13T05:46:17.988Z,5.44
2018-04-13T05:46:53.393Z,6.30
2018-04-13T05:47:28.774Z,6.21
2018-04-13T05:48:03.886Z,6.68
2018-04-13T05:48:39.351Z,6.87
2018-04-13T05:49:14.815Z,6.68
2018-04-13T05:49:50.124Z,6.59
2018-04-13T05:50:25.169Z,7.45
2018-04-13T05:51:00.758Z,7.83
2018-04-13T05:51:38.130Z,9.55
2018-04-13T05:52:13.456Z,8.69
2018-04-13T05:52:48.771Z,9.07
2018-04-13T05:53:24.198Z,9.45
2018-04-13T05:53:59.707Z,9.45
2018-04-13T05:54:35.160Z,9.74
2018-04-13T05:55:10.544Z,10.03
2018-04-13T05:55:45.781Z,10.98
2018-04-13T05:56:21.228Z,10.60
2018-04-13T05:56:56.643Z,11.37
2018-04-13T05:57:31.960Z,11.94
2018-04-13T05:58:07.184Z,12.80
2018-04-13T05:58:42.696Z,11.94
2018-04-13T05:59:18.064Z,12.23
2018-04-13T05:59:53.493Z,12.80
2018-04-13T06:00:28.723Z,14.72
2018-04-13T06:01:04.540Z,15.67
2018-04-13T06:01:39.762Z,14.52
2018-04-13T06:02:15.232Z,14.33
2018-04-13T06:02:50.897Z,15.48
2018-04-13T06:03:26.241Z,15.09
2018-04-13T06:04:01.488Z,15.67
2018-04-13T06:04:37.119Z,16.63
2018-04-13T06:07:13.467Z,17.49
2018-04-13T06:07:51.664Z,17.21
2018-04-13T06:08:26.977Z,15.96
2018-04-13T06:09:02.247Z,16.82
2018-04-13T06:09:38.195Z,15.96
2018-04-13T06:10:13.723Z,16.63
2018-04-13T06:10:51.252Z,15.96
2018-04-13T06:11:26.769Z,16.53
2018-04-13T06:12:01.969Z,17.78
2018-04-13T06:12:37.489Z,16.44
2018-04-13T06:13:12.666Z,18.35
2018-04-13T06:13:47.978Z,18.54
2018-04-13T06:14:23.556Z,18.74
2018-04-13T06:14:58.951Z,20.75
2018-04-13T06:15:34.301Z,20.85
2018-04-13T06:16:09.685Z,20.66
2018-04-13T06:16:45.040Z,22.96
2018-04-13T06:17:20.335Z,22.09
2018-04-13T06:17:56.183Z,22.86
2018-04-13T06:18:31.580Z,24.19
2018-04-13T06:19:06.960Z,25.06
2018-04-13T06:19:42.460Z,25.92
2018-04-13T06:20:18.040Z,26.78
2018-04-13T06:20:53.525Z,26.21
2018-04-13T06:21:29.029Z,24.77
2018-04-13T06:22:04.578Z,25.92
2018-04-13T06:22:41.724Z,26.30
2018-04-13T06:23:17.048Z,28.02
2018-04-13T06:23:52.605Z,27.16
2018-04-13T06:24:27.966Z,24.49
2018-04-13T06:25:03.229Z,23.72
2018-04-13T06:25:42.190Z,23.72
2018-04-13T06:26:19.612Z,21.71
2018-04-13T06:26:55.099Z,20.55
2018-04-13T06:27:30.446Z,18.07
2018-04-13T06:28:05.757Z,18.84
2018-04-13T06:28:41.277Z,23.33
2018-04-13T06:29:16.573Z,21.90
2018-04-13T06:29:51.894Z,22.19
2018-04-13T06:30:27.035Z,20.75
2018-04-13T06:31:02.288Z,19.89
2018-04-13T06:31:38.103Z,19.23
2018-04-13T06:32:13.522Z,17.69
2018-04-13T06:32:48.858Z,24.10
2018-04-13T06:33:24.187Z,22.28
2018-04-13T06:33:59.485Z,19.60
2018-04-13T06:34:37.838Z,20.75
2018-04-13T06:35:13.265Z,18.74
2018-04-13T06:35:48.896Z,21.90
2018-04-13T06:36:24.439Z,23.14
2018-04-13T06:36:59.869Z,24.19
2018-04-13T06:37:35.811Z,24.98
2018-04-13T06:38:11.278Z,25.82
2018-04-13T06:38:46.608Z,26.01
2018-04-13T06:39:22.161Z,27.64
2018-04-13T06:39:57.527Z,25.15
2018-04-13T06:40:33.491Z,28.50
2018-04-13T06:41:08.710Z,30.90
2018-04-13T06:41:43.965Z,30.61
2018-04-13T06:42:19.181Z,30.03
2018-04-13T06:42:55.513Z,29.46
2018-04-13T06:43:31.017Z,32.33
2018-04-13T06:44:06.511Z,32.15
2018-04-13T06:44:41.847Z,31.09
2018-04-13T06:45:18.538Z,27.93
2018-04-13T06:45:53.986Z,30.15
2018-04-13T06:46:29.427Z,26.79
2018-04-13T06:47:05.113Z,24.79
2018-04-13T06:47:40.570Z,26.21
2018-04-13T06:48:15.939Z,23.53
2018-04-13T06:48:51.573Z,27.07
2018-04-13T06:49:26.857Z,28.02
2018-04-13T06:50:02.359Z,25.82
2018-04-13T06:50:39.380Z,25.06
2018-04-13T06:51:14.598Z,27.73
2018-04-13T06:51:50.031Z,27.83
2018-04-13T06:52:25.722Z,26.78
2018-04-13T06:53:01.106Z,25.25
2018-04-13T06:53:36.430Z,26.30
2018-04-13T06:54:11.828Z,30.13
2018-04-13T06:54:47.388Z,29.94
2018-04-13T06:55:22.907Z,24.77
2018-04-13T06:55:59.543Z,26.59
2018-04-13T06:56:35.770Z,25.25
2018-04-13T06:57:11.606Z,24.87
2018-04-13T06:57:46.832Z,27.07
2018-04-13T06:58:22.130Z,26.78
2018-04-13T06:58:59.457Z,27.73
2018-04-13T06:59:35.088Z,27.36
2018-04-13T07:00:10.896Z,27.55
2018-04-13T07:00:47.432Z,25.92
2018-04-13T07:01:22.971Z,26.68
2018-04-13T07:01:58.489Z,27.93
2018-04-13T07:02:34.172Z,28.13
2018-04-13T07:03:09.571Z,28.70
2018-04-13T07:03:45.216Z,32.92
2018-04-13T07:04:20.760Z,25.65
2018-04-13T07:04:56.103Z,29.95
2018-04-13T07:05:31.330Z,30.62
2018-04-13T07:06:06.751Z,29.47
2018-04-13T07:06:45.772Z,30.62
2018-04-13T07:07:21.349Z,27.47
2018-04-13T07:07:56.756Z,30.15
2018-04-13T07:08:32.285Z,30.52
2018-04-13T07:09:07.570Z,31.48
2018-04-13T07:09:42.943Z,33.78
2018-04-13T07:10:18.456Z,36.75
2018-04-13T07:10:56.305Z,33.87
2018-04-13T07:11:31.878Z,31.87
2018-04-13T07:12:07.413Z,36.77
2018-04-13T07:12:42.847Z,35.71
2018-04-13T07:13:18.172Z,34.94
2018-04-13T07:13:53.585Z,40.69
2018-04-13T07:14:28.898Z,35.42
2018-04-13T07:15:04.533Z,36.77
2018-04-13T07:15:40.905Z,47.11
2018-04-13T07:16:16.094Z,42.41
2018-04-13T07:16:51.322Z,40.52
2018-04-13T07:17:28.890Z,38.89
2018-04-13T07:18:04.616Z,42.72
2018-04-13T07:18:40.147Z,49.71
2018-04-13T07:19:15.672Z,47.73
2018-04-13T07:19:51.205Z,44.18
2018-04-13T07:20:26.615Z,49.45
2018-04-13T07:21:02.237Z,51.65
2018-04-13T07:21:37.786Z,49.67
2018-04-13T07:22:12.914Z,50.34
2018-04-13T07:22:48.160Z,54.17
2018-04-13T07:23:23.435Z,55.16
2018-04-13T07:23:58.847Z,55.45
2018-04-13T07:24:34.389Z,55.19
2018-04-13T07:25:10.585Z,55.67
2018-04-13T07:25:46.048Z,57.68
2018-04-13T07:26:21.453Z,63.38
2018-04-13T07:26:56.997Z,57.78
2018-04-13T07:27:32.479Z,57.88
2018-04-13T07:28:07.922Z,56.15
2018-04-13T07:28:43.263Z,59.32
2018-04-13T07:29:18.658Z,59.32
2018-04-13T07:29:53.877Z,63.54
2018-04-13T07:30:29.095Z,60.95
2018-04-13T07:31:04.597Z,62.29
2018-04-13T07:31:40.746Z,60.47
2018-04-13T07:32:16.464Z,63.54
2018-04-13T07:32:52.072Z,64.50
2018-04-13T07:33:27.700Z,63.64
2018-04-13T07:34:03.404Z,64.98
2018-04-13T07:34:39.318Z,64.47
2018-04-13T07:35:14.920Z,62.36
2018-04-13T07:35:50.134Z,62.87
2018-04-13T07:36:25.444Z,61.40
2018-04-13T07:37:01.152Z,59.58
2018-04-13T07:37:36.600Z,62.07
2018-04-13T07:38:11.899Z,60.92
2018-04-13T07:38:47.247Z,64.37
2018-04-13T07:39:22.874Z,62.62
2018-04-13T07:39:58.191Z,60.79
2018-04-13T07:40:33.914Z,61.40
2018-04-13T07:41:09.066Z,61.40
2018-04-13T07:41:44.190Z,61.11
2018-04-13T07:42:19.858Z,61.40
2018-04-13T07:42:55.431Z,61.21
2018-04-13T07:43:31.196Z,62.74
2018-04-13T07:44:05.740Z,63.79
2018-04-13T07:44:41.771Z,62.16
2018-04-13T07:45:17.475Z,60.63
2018-04-13T07:45:53.036Z,60.53